createdAt,value
2023-01-07T00:01:43.864Z,79.80
2023-01-07T00:04:13.318Z,79.40
2023-01-07T00:06:42.957Z,79.50
2023-01-07T00:09:13.703Z,79.40
2023-01-07T00:11:42.273Z,79.40
2023-01-07T00:14:11.944Z,79.80
2023-01-07T00:16:41.680Z,79.60
2023-01-07T00:19:13.160Z,79.20
2023-01-07T00:21:41.154Z,78.80
2023-01-07T00:24:11.156Z,78.50
2023-01-07T00:26:39.675Z,79.00
2023-01-07T00:29:07.832Z,78.90
2023-01-07T00:31:37.460Z,78.90
2023-01-07T00:34:08.866Z,78.50
2023-01-07T00:36:42.571Z,78.30
2023-01-07T00:39:14.263Z,78.80
2023-01-07T00:42:03.317Z,78.70
2023-01-07T00:44:32.109Z,78.20
2023-01-07T00:47:00.748Z,78.30
2023-01-07T00:49:30.092Z,78.40
2023-01-07T00:51:57.988Z,78.20
2023-01-07T00:54:25.849Z,78.10
2023-01-07T00:56:53.700Z,78.20
2023-01-07T00:59:21.613Z,78.20
2023-01-07T01:01:49.527Z,78.30
2023-01-07T01:04:18.276Z,78.60
2023-01-07T01:06:47.506Z,78.50
2023-01-07T01:09:15.368Z,78.10
2023-01-07T01:11:43.193Z,78.30
2023-01-07T01:14:12.375Z,78.20
2023-01-07T01:16:40.333Z,78.70
2023-01-07T01:19:08.127Z,78.60
2023-01-07T01:21:36.033Z,78.50
2023-01-07T01:24:05.442Z,78.40
2023-01-07T01:26:33.313Z,78.30
2023-01-07T01:29:01.169Z,78.30
2023-01-07T01:31:28.995Z,78.00
2023-01-07T01:33:57.383Z,78.10
2023-01-07T01:36:25.274Z,77.90
2023-01-07T01:38:53.130Z,77.90
2023-01-07T01:41:22.581Z,78.10
2023-01-07T01:43:50.568Z,78.20
2023-01-07T01:46:26.576Z,77.90
2023-01-07T01:48:57.712Z,78.10
2023-01-07T01:51:34.442Z,78.00
2023-01-07T01:54:04.379Z,78.30
2023-01-07T01:56:35.709Z,78.20
2023-01-07T01:59:08.085Z,78.30
2023-01-07T02:01:37.653Z,78.00
2023-01-07T02:04:09.679Z,78.20
2023-01-07T02:06:43.137Z,77.90
2023-01-07T02:09:12.765Z,77.60
2023-01-07T02:11:52.660Z,77.80
2023-01-07T02:14:35.824Z,78.30
2023-01-07T02:17:13.487Z,78.10
2023-01-07T02:20:15.958Z,77.30
2023-01-07T02:22:59.927Z,77.60
2023-01-07T02:25:52.490Z,77.60
2023-01-07T02:28:49.114Z,77.40
2023-01-07T02:31:48.175Z,77.20
2023-01-07T02:34:22.097Z,77.70
2023-01-07T02:36:53.907Z,77.50
2023-01-07T02:39:32.109Z,77.20
2023-01-07T02:42:05.117Z,77.90
2023-01-07T02:44:39.625Z,77.80
2023-01-07T02:47:15.216Z,77.90
2023-01-07T02:49:44.411Z,77.70
2023-01-07T02:52:19.873Z,78.00
2023-01-07T02:54:51.433Z,77.70
2023-01-07T02:57:45.001Z,77.70
2023-01-07T03:00:22.885Z,77.50
2023-01-07T03:03:09.438Z,77.20
2023-01-07T03:05:50.563Z,77.20
2023-01-07T03:08:35.321Z,77.40
2023-01-07T03:11:05.482Z,77.50
2023-01-07T03:13:42.511Z,77.70
2023-01-07T03:16:16.838Z,77.20
2023-01-07T03:18:49.562Z,77.30
2023-01-07T03:21:21.180Z,77.70
2023-01-07T03:23:54.780Z,77.40
2023-01-07T03:26:27.834Z,77.70
2023-01-07T03:28:58.035Z,77.20
2023-01-07T03:31:27.078Z,76.90
2023-01-07T03:33:58.832Z,76.80
2023-01-07T03:36:31.838Z,76.80
2023-01-07T03:39:00.742Z,76.60
2023-01-07T03:41:46.715Z,76.60
2023-01-07T03:44:14.607Z,76.30
2023-01-07T03:46:42.969Z,76.40
2023-01-07T03:49:10.839Z,76.60
2023-01-07T03:51:40.005Z,76.80
2023-01-07T03:54:07.819Z,77.20
2023-01-07T03:56:35.671Z,76.90
2023-01-07T03:59:03.540Z,77.30
2023-01-07T04:01:31.832Z,77.10
2023-01-07T04:04:02.360Z,76.90
2023-01-07T04:06:30.926Z,76.80
2023-01-07T04:09:00.126Z,76.70
2023-01-07T04:11:27.904Z,76.90
2023-01-07T04:13:57.101Z,76.70
2023-01-07T04:16:24.970Z,77.00
2023-01-07T04:18:52.855Z,77.30
2023-01-07T04:21:20.828Z,77.20
2023-01-07T04:23:48.662Z,77.10
2023-01-07T04:26:17.851Z,77.40
2023-01-07T04:28:45.746Z,77.50
2023-01-07T04:31:13.786Z,76.90
2023-01-07T04:33:41.689Z,77.20
2023-01-07T04:36:09.998Z,77.50
2023-01-07T04:38:37.893Z,77.50
2023-01-07T04:41:05.798Z,77.30
2023-01-07T04:43:36.154Z,77.20
2023-01-07T04:46:04.699Z,77.70
2023-01-07T04:48:32.714Z,78.10
2023-01-07T04:51:00.674Z,78.00
2023-01-07T04:53:28.499Z,78.40
2023-01-07T04:55:56.349Z,78.50
2023-01-07T04:58:24.247Z,78.20
2023-01-07T05:00:55.386Z,78.30
2023-01-07T05:03:23.287Z,78.10
2023-01-07T05:05:51.147Z,78.10
2023-01-07T05:08:19.002Z,78.30
2023-01-07T05:10:46.906Z,79.50
2023-01-07T05:13:16.893Z,79.50
2023-01-07T05:15:44.726Z,78.70
2023-01-07T05:18:14.114Z,78.80
2023-01-07T05:20:42.067Z,78.80
2023-01-07T05:23:10.112Z,78.50
2023-01-07T05:25:37.900Z,78.10
2023-01-07T05:28:05.922Z,77.70
2023-01-07T05:30:33.805Z,78.20
2023-01-07T05:33:01.564Z,77.80
2023-01-07T05:35:30.753Z,77.60
2023-01-07T05:37:58.592Z,77.70
2023-01-07T05:40:26.496Z,77.60
2023-01-07T05:42:54.323Z,77.50
2023-01-07T05:45:22.337Z,77.50
2023-01-07T05:47:50.492Z,76.90
2023-01-07T05:50:18.650Z,77.10
2023-01-07T05:52:47.797Z,77.00
2023-01-07T05:55:15.641Z,76.60
2023-01-07T05:57:43.422Z,76.60
2023-01-07T06:00:12.071Z,76.50
2023-01-07T06:02:39.972Z,77.00
2023-01-07T06:05:09.073Z,77.70
2023-01-07T06:07:36.921Z,76.50
2023-01-07T06:10:06.835Z,77.00
2023-01-07T06:12:35.025Z,76.90
2023-01-07T06:15:02.940Z,76.80
2023-01-07T06:17:30.816Z,76.70
2023-01-07T06:19:58.653Z,76.80
2023-01-07T06:22:26.491Z,76.50
2023-01-07T06:24:54.319Z,76.60
2023-01-07T06:27:23.731Z,76.30
2023-01-07T06:29:51.571Z,76.40
2023-01-07T06:32:19.428Z,76.30
2023-01-07T06:34:47.290Z,76.20
2023-01-07T06:37:15.149Z,75.90
2023-01-07T06:39:42.969Z,75.80
2023-01-07T06:42:10.720Z,75.70
2023-01-07T06:44:39.914Z,75.70
2023-01-07T06:47:07.763Z,75.90
2023-01-07T06:49:35.640Z,76.40
2023-01-07T06:52:03.473Z,75.80
2023-01-07T06:54:31.270Z,75.80
2023-01-07T06:56:59.138Z,75.80
2023-01-07T06:59:26.955Z,76.50
2023-01-07T07:01:56.248Z,75.50
2023-01-07T07:04:24.247Z,75.40
2023-01-07T07:06:52.066Z,75.70
2023-01-07T07:09:19.883Z,74.90
2023-01-07T07:11:47.686Z,75.10
2023-01-07T07:14:15.582Z,74.90
2023-01-07T07:16:43.361Z,74.80
2023-01-07T07:19:13.787Z,74.90
2023-01-07T07:21:41.624Z,74.30
2023-01-07T07:24:09.505Z,74.30
2023-01-07T07:26:37.332Z,74.30
2023-01-07T07:29:05.153Z,74.00
2023-01-07T07:31:33.057Z,74.50
2023-01-07T07:34:00.865Z,73.20
2023-01-07T07:36:30.013Z,73.60
2023-01-07T07:38:58.072Z,73.40
2023-01-07T07:41:25.887Z,73.60
2023-01-07T07:43:53.714Z,73.70
2023-01-07T07:46:21.664Z,73.20
2023-01-07T07:48:50.188Z,73.40
2023-01-07T07:51:18.441Z,73.70
2023-01-07T07:53:47.597Z,72.90
2023-01-07T07:56:15.443Z,72.80
2023-01-07T07:58:43.909Z,72.90
2023-01-07T08:01:11.800Z,72.00
2023-01-07T08:03:39.693Z,72.40
2023-01-07T08:06:08.171Z,72.10
2023-01-07T08:08:36.031Z,71.80
2023-01-07T08:11:05.898Z,71.90
2023-01-07T08:13:33.809Z,71.20
2023-01-07T08:16:01.751Z,71.70
2023-01-07T08:21:04.705Z,71.70
2023-01-07T08:23:32.615Z,71.50
2023-01-07T08:26:02.825Z,70.70
2023-01-07T08:28:32.441Z,71.20
2023-01-07T08:31:02.619Z,70.90
2023-01-07T08:33:30.543Z,71.40
2023-01-07T08:35:58.430Z,70.90
2023-01-07T08:38:28.772Z,70.90
2023-01-07T08:40:56.540Z,71.20
2023-01-07T08:43:25.081Z,69.80
2023-01-07T08:45:54.765Z,71.10
2023-01-07T08:48:23.321Z,70.40
2023-01-07T08:50:52.289Z,69.70
2023-01-07T08:53:20.723Z,69.60
2023-01-07T08:55:48.653Z,70.80
2023-01-07T08:58:16.649Z,70.60
2023-01-07T09:00:44.682Z,70.00
2023-01-07T09:03:13.887Z,70.10
2023-01-07T09:05:41.716Z,69.80
2023-01-07T09:08:09.547Z,70.00
2023-01-07T09:10:38.563Z,70.30
2023-01-07T09:13:06.837Z,69.20
2023-01-07T09:15:34.721Z,69.80
2023-01-07T09:18:03.729Z,69.30
2023-01-07T09:20:32.899Z,69.40
2023-01-07T09:23:00.775Z,69.40
2023-01-07T09:25:28.603Z,69.10
2023-01-07T09:27:56.655Z,69.70
2023-01-07T09:30:24.579Z,69.00
2023-01-07T09:32:52.454Z,68.80
2023-01-07T09:35:20.407Z,68.00
2023-01-07T09:37:49.610Z,68.20
2023-01-07T09:40:25.580Z,68.70
2023-01-07T09:42:59.701Z,68.60
2023-01-07T09:45:32.408Z,67.40
2023-01-07T09:48:04.007Z,68.60
2023-01-07T09:50:44.047Z,67.60
2023-01-07T09:53:17.127Z,67.90
2023-01-07T09:56:10.667Z,67.50
2023-01-07T09:58:35.964Z,68.30
2023-01-07T10:01:10.671Z,68.20
2023-01-07T10:03:50.693Z,66.80
2023-01-07T10:06:38.454Z,68.00
2023-01-07T10:09:22.030Z,66.80
2023-01-07T10:11:57.663Z,66.80
2023-01-07T10:14:45.366Z,67.20
2023-01-07T10:17:24.020Z,66.00
2023-01-07T10:19:58.809Z,66.80
2023-01-07T10:22:31.268Z,66.50
2023-01-07T10:25:04.571Z,66.90
2023-01-07T10:27:36.064Z,67.20
2023-01-07T10:30:07.043Z,66.20
2023-01-07T10:32:37.141Z,66.60
2023-01-07T10:35:08.309Z,66.40
2023-01-07T10:37:38.433Z,65.60
2023-01-07T10:40:25.199Z,66.00
2023-01-07T10:43:00.367Z,64.70
2023-01-07T10:45:50.539Z,65.50
2023-01-07T10:48:35.467Z,65.70
2023-01-07T10:51:14.638Z,65.50
2023-01-07T10:53:54.534Z,66.00
2023-01-07T10:56:29.503Z,65.90
2023-01-07T10:58:57.479Z,65.60
2023-01-07T11:01:28.260Z,65.50
2023-01-07T11:03:57.966Z,64.40
2023-01-07T11:06:36.374Z,64.10
2023-01-07T11:09:08.512Z,64.20
2023-01-07T11:11:38.429Z,65.30
2023-01-07T11:14:12.638Z,65.30
2023-01-07T11:16:44.432Z,64.50
2023-01-07T11:19:12.975Z,64.90
2023-01-07T11:21:44.772Z,66.30
2023-01-07T11:24:31.023Z,64.50
2023-01-07T11:27:07.832Z,64.60
2023-01-07T11:29:39.863Z,64.90
2023-01-07T11:32:18.719Z,65.70
2023-01-07T11:34:56.211Z,65.10
2023-01-07T11:37:39.458Z,65.20
2023-01-07T11:40:20.894Z,66.00
2023-01-07T11:42:52.248Z,64.70
2023-01-07T11:45:21.744Z,65.10
2023-01-07T11:47:56.737Z,65.80
2023-01-07T11:50:31.348Z,65.20
2023-01-07T11:53:01.596Z,65.90
2023-01-07T11:55:30.559Z,65.40
2023-01-07T11:58:28.601Z,65.80
2023-01-07T12:01:03.012Z,65.40
2023-01-07T12:03:31.036Z,65.50
2023-01-07T12:06:08.701Z,65.70
2023-01-07T12:08:36.990Z,65.70
2023-01-07T12:11:08.768Z,65.80
2023-01-07T12:13:40.560Z,65.70
2023-01-07T12:16:09.832Z,65.80
2023-01-07T12:18:51.960Z,65.70
2023-01-07T12:21:41.986Z,65.70
2023-01-07T12:24:35.590Z,66.30
2023-01-07T12:27:13.360Z,66.00
2023-01-07T12:29:55.769Z,65.50
2023-01-07T12:32:41.360Z,65.90
2023-01-07T12:35:18.403Z,66.00
2023-01-07T12:37:51.654Z,65.70
2023-01-07T12:40:29.456Z,65.60
2023-01-07T12:43:03.775Z,66.10
2023-01-07T12:45:39.773Z,66.20
2023-01-07T12:48:17.366Z,66.00
2023-01-07T12:50:49.523Z,64.80
2023-01-07T12:53:24.677Z,65.90
2023-01-07T12:55:57.798Z,65.20
2023-01-07T12:58:44.750Z,65.00
2023-01-07T13:01:26.732Z,65.70
2023-01-07T13:04:05.358Z,65.00
2023-01-07T13:06:45.351Z,65.10
2023-01-07T13:09:25.212Z,64.40
2023-01-07T13:12:40.549Z,65.10
2023-01-07T13:15:11.025Z,65.50
2023-01-07T13:17:40.783Z,65.40
2023-01-07T13:20:14.108Z,65.20
2023-01-07T13:22:45.593Z,65.00
2023-01-07T13:25:36.010Z,64.90
2023-01-07T13:28:27.923Z,65.50
2023-01-07T13:31:13.795Z,65.00
2023-01-07T13:33:48.464Z,65.60
2023-01-07T13:36:28.355Z,65.90
2023-01-07T13:39:17.162Z,66.00
2023-01-07T13:42:02.399Z,65.50
2023-01-07T13:44:59.228Z,65.60
2023-01-07T13:47:33.889Z,64.90
2023-01-07T13:50:04.608Z,65.50
2023-01-07T13:52:34.452Z,65.20
2023-01-07T13:55:04.184Z,65.90
2023-01-07T13:57:50.896Z,66.00
2023-01-07T14:00:39.440Z,64.60
2023-01-07T14:03:35.846Z,65.30
2023-01-07T14:06:43.016Z,64.60
2023-01-07T14:09:25.630Z,66.00
2023-01-07T14:12:26.075Z,65.00
2023-01-07T14:15:07.644Z,65.20
2023-01-07T14:17:43.393Z,65.50
2023-01-07T14:20:19.325Z,64.60
2023-01-07T14:22:56.334Z,64.80
2023-01-07T14:25:43.050Z,65.70
2023-01-07T14:28:36.699Z,65.40
2023-01-07T14:31:05.692Z,65.10
2023-01-07T14:33:37.805Z,64.30
2023-01-07T14:36:08.379Z,65.20
2023-01-07T14:39:24.389Z,65.80
2023-01-07T14:42:30.217Z,65.00
2023-01-07T14:45:02.187Z,65.40
2023-01-07T14:47:55.464Z,65.80
2023-01-07T14:50:32.826Z,65.20
2023-01-07T14:53:39.649Z,65.90
2023-01-07T14:56:24.921Z,65.10
2023-01-07T14:59:25.747Z,65.90
2023-01-07T15:02:16.952Z,66.40
2023-01-07T15:05:05.501Z,66.00
2023-01-07T15:07:36.787Z,66.40
2023-01-07T15:10:33.905Z,67.20
2023-01-07T15:13:19.982Z,66.20
2023-01-07T15:16:06.324Z,66.30
2023-01-07T15:18:47.017Z,66.40
2023-01-07T15:21:23.084Z,66.80
2023-01-07T15:23:59.958Z,67.20
2023-01-07T15:26:38.497Z,67.30
2023-01-07T15:29:14.996Z,67.20
2023-01-07T15:31:49.856Z,67.10
2023-01-07T15:34:20.655Z,66.70
2023-01-07T15:36:50.941Z,67.70
2023-01-07T15:39:23.485Z,67.40
2023-01-07T15:41:53.989Z,67.80
2023-01-07T15:44:24.576Z,68.20
2023-01-07T15:46:52.944Z,68.70
2023-01-07T15:49:24.068Z,69.00
2023-01-07T15:51:54.511Z,69.00
2023-01-07T15:54:28.722Z,68.80
2023-01-07T15:57:00.867Z,68.80
2023-01-07T15:59:32.292Z,69.00
2023-01-07T16:02:14.870Z,68.60
2023-01-07T16:04:48.265Z,68.60
2023-01-07T16:07:23.820Z,68.80
2023-01-07T16:09:52.175Z,68.60
2023-01-07T16:12:38.802Z,68.30
2023-01-07T16:15:22.777Z,68.20
2023-01-07T16:17:51.546Z,68.20
2023-01-07T16:20:28.062Z,68.40
2023-01-07T16:23:13.453Z,68.00
2023-01-07T16:25:46.118Z,68.40
2023-01-07T16:28:18.627Z,68.20
2023-01-07T16:30:47.358Z,68.50
2023-01-07T16:33:18.161Z,68.80
2023-01-07T16:35:49.105Z,69.00
2023-01-07T16:38:19.420Z,69.10
2023-01-07T16:40:48.719Z,69.50
2023-01-07T16:43:33.069Z,69.90
2023-01-07T16:46:20.651Z,70.50
2023-01-07T16:48:49.922Z,70.50
2023-01-07T16:51:40.862Z,70.60
2023-01-07T16:54:31.086Z,71.00
2023-01-07T16:57:01.300Z,71.10
2023-01-07T16:59:31.672Z,71.60
2023-01-07T17:02:03.168Z,71.40
2023-01-07T17:04:31.580Z,71.30
2023-01-07T17:07:02.833Z,71.70
2023-01-07T17:09:35.533Z,71.70
2023-01-07T17:12:04.684Z,72.10
2023-01-07T17:14:49.158Z,72.20
2023-01-07T17:17:26.169Z,73.10
2023-01-07T17:20:00.384Z,72.80
2023-01-07T17:22:32.201Z,73.20
2023-01-07T17:25:09.758Z,73.00
2023-01-07T17:27:44.291Z,73.20
2023-01-07T17:30:18.030Z,73.60
2023-01-07T17:32:47.489Z,73.40
2023-01-07T17:35:20.800Z,73.90
2023-01-07T17:37:50.646Z,73.70
2023-01-07T17:40:19.203Z,74.10
2023-01-07T17:43:05.783Z,74.30
2023-01-07T17:45:33.919Z,74.30
2023-01-07T17:48:01.791Z,73.80
2023-01-07T17:50:36.647Z,74.00
2023-01-07T17:53:06.230Z,73.60
2023-01-07T17:55:37.021Z,73.00
2023-01-07T17:58:05.707Z,73.20
2023-01-07T18:00:36.612Z,73.10
2023-01-07T18:03:04.982Z,73.20
2023-01-07T18:05:33.190Z,73.60
2023-01-07T18:08:01.083Z,73.80
2023-01-07T18:10:51.943Z,73.50
2023-01-07T18:13:18.753Z,73.50
2023-01-07T18:15:46.591Z,73.70
2023-01-07T18:18:14.899Z,73.80
2023-01-07T18:20:42.764Z,73.70
2023-01-07T18:23:12.152Z,73.20
2023-01-07T18:25:44.318Z,73.20
2023-01-07T18:28:12.523Z,73.50
2023-01-07T18:30:40.452Z,73.40
2023-01-07T18:33:10.708Z,73.60
2023-01-07T18:35:40.458Z,73.70
2023-01-07T18:38:13.074Z,73.50
2023-01-07T18:40:42.844Z,73.20
2023-01-07T18:43:13.290Z,73.00
2023-01-07T18:45:41.643Z,73.20
2023-01-07T18:48:09.514Z,73.00
2023-01-07T18:50:41.141Z,72.90
2023-01-07T18:53:09.595Z,72.90
2023-01-07T18:55:37.564Z,72.90
2023-01-07T18:58:07.782Z,73.00
2023-01-07T19:00:36.062Z,73.00
2023-01-07T19:03:03.904Z,73.00
2023-01-07T19:05:32.253Z,73.30
2023-01-07T19:08:00.109Z,73.10
2023-01-07T19:10:28.897Z,73.80
2023-01-07T19:12:56.724Z,72.90
2023-01-07T19:15:25.877Z,72.90
2023-01-07T19:17:53.681Z,72.60
2023-01-07T19:20:21.577Z,72.90
2023-01-07T19:22:49.384Z,72.90
2023-01-07T19:25:17.300Z,72.60
2023-01-07T19:27:45.132Z,72.50
2023-01-07T19:30:13.952Z,72.30
2023-01-07T19:32:43.061Z,72.50
2023-01-07T19:35:11.080Z,72.90
2023-01-07T19:37:39.087Z,72.90
2023-01-07T19:40:08.089Z,73.00
2023-01-07T19:42:36.044Z,73.10
2023-01-07T19:45:03.921Z,73.80
2023-01-07T19:47:32.328Z,74.40
2023-01-07T19:50:01.523Z,74.40
2023-01-07T19:52:29.460Z,74.70
2023-01-07T19:54:57.527Z,75.10
2023-01-07T19:57:25.377Z,74.80
2023-01-07T19:59:53.146Z,74.90
2023-01-07T20:02:21.101Z,75.40
2023-01-07T20:04:49.142Z,75.10
2023-01-07T20:07:18.268Z,75.00
2023-01-07T20:09:46.072Z,74.70
2023-01-07T20:12:13.886Z,74.90
2023-01-07T20:14:42.292Z,74.80
2023-01-07T20:17:10.087Z,74.60
2023-01-07T20:19:37.885Z,74.90
2023-01-07T20:22:05.690Z,74.70
2023-01-07T20:24:34.823Z,74.50
2023-01-07T20:27:02.786Z,74.40
2023-01-07T20:29:30.674Z,74.40
2023-01-07T20:31:58.562Z,74.70
2023-01-07T20:34:26.513Z,74.40
2023-01-07T20:36:55.046Z,74.60
2023-01-07T20:39:23.039Z,75.40
2023-01-07T20:41:52.230Z,75.40
2023-01-07T20:44:21.670Z,75.50
2023-01-07T20:46:49.543Z,75.80
2023-01-07T20:49:17.556Z,75.60
2023-01-07T20:51:45.800Z,75.00
2023-01-07T20:54:13.663Z,74.80
2023-01-07T20:56:41.600Z,74.80
2023-01-07T20:59:12.508Z,75.30
2023-01-07T21:01:40.922Z,75.20
2023-01-07T21:04:08.814Z,75.10
2023-01-07T21:06:36.734Z,74.90
2023-01-07T21:09:05.199Z,74.80
2023-01-07T21:11:32.982Z,74.60
2023-01-07T21:14:00.841Z,74.30
2023-01-07T21:16:30.047Z,74.20
2023-01-07T21:18:58.097Z,74.30
2023-01-07T21:21:26.053Z,74.00
2023-01-07T21:23:55.034Z,74.10
2023-01-07T21:26:23.303Z,74.10
2023-01-07T21:28:55.655Z,73.80
2023-01-07T21:31:24.621Z,73.70
2023-01-07T21:33:56.256Z,73.50
2023-01-07T21:36:25.745Z,73.70
2023-01-07T21:38:57.048Z,73.90
2023-01-07T21:41:26.140Z,74.00
2023-01-07T21:43:54.127Z,73.90
2023-01-07T21:46:22.836Z,73.70
2023-01-07T21:48:51.792Z,73.80
2023-01-07T21:51:23.196Z,74.10
2023-01-07T21:53:55.639Z,74.00
2023-01-07T21:56:24.531Z,73.90
2023-01-07T21:58:52.869Z,73.90
2023-01-07T22:01:21.758Z,73.80
2023-01-07T22:03:50.517Z,73.90
2023-01-07T22:06:24.044Z,73.60
2023-01-07T22:08:56.064Z,73.70
2023-01-07T22:11:24.449Z,73.80
2023-01-07T22:13:52.847Z,74.10
2023-01-07T22:16:21.322Z,74.60
2023-01-07T22:18:49.623Z,74.70
2023-01-07T22:21:20.119Z,74.70
2023-01-07T22:23:49.037Z,73.40
2023-01-07T22:26:19.279Z,72.60
2023-01-07T22:28:51.023Z,71.50
2023-01-07T22:31:22.035Z,71.80
2023-01-07T22:33:49.989Z,71.70
2023-01-07T22:36:23.881Z,70.60
2023-01-07T22:38:52.551Z,71.10
2023-01-07T22:41:20.812Z,71.20
2023-01-07T22:43:48.932Z,71.50
2023-01-07T22:46:22.069Z,71.30
2023-01-07T22:48:50.357Z,71.30
2023-01-07T22:51:24.694Z,71.20
2023-01-07T22:53:54.388Z,71.30
2023-01-07T22:56:22.336Z,71.00
2023-01-07T22:58:50.352Z,70.90
2023-01-07T23:01:19.055Z,71.10
2023-01-07T23:03:47.451Z,70.80
2023-01-07T23:06:16.557Z,70.60
2023-01-07T23:08:45.773Z,70.10
2023-01-07T23:11:34.925Z,69.80
2023-01-07T23:14:03.171Z,70.70
2023-01-07T23:16:31.112Z,70.50
2023-01-07T23:18:59.032Z,70.20
2023-01-07T23:21:26.908Z,70.40
2023-01-07T23:23:56.065Z,70.50
2023-01-07T23:26:23.923Z,70.40
2023-01-07T23:28:51.765Z,70.60
2023-01-07T23:31:19.629Z,70.70
2023-01-07T23:33:47.500Z,70.70
2023-01-07T23:36:15.287Z,70.70
2023-01-07T23:38:43.421Z,70.60
2023-01-07T23:41:13.602Z,71.00
2023-01-07T23:43:41.407Z,70.90
2023-01-07T23:46:09.971Z,70.90
2023-01-07T23:48:39.018Z,71.00
2023-01-07T23:51:08.473Z,70.90
2023-01-07T23:53:36.668Z,70.90
2023-01-07T23:56:05.691Z,70.80
2023-01-07T23:58:35.978Z,71.10
